Aktualne dane pomiarowe

Uwaga, wersja testowa! Automatyczne pobieranie danych za pomocą narzędzi lub skryptów to umożliwiających jest zabronione.

Dane meteo z obszaru Polski uzyskane na podstawie depesz SYNOP pobieranych co godzinę z NWS. Najedź myszką na symbol przedstawiony w tabeli, aby uzyskać informacje co do jego znaczenia. Prosimy pamiętać, że to testowa wersja strony, która jeszcze nie jest ukończona. Stworzono również jest krótki FAQ dotyczący korzystania z tej podstrony Anomalie temperatury w chwili obecnej odniesione są do okresu referencyjnego 1951-2016. Okres ten będzie później zmieniony na 1981-2010. Kliknij ikonę aby pobrać plik CSV. Kliknij ikonę aby wygenerować mapę synoptyczną dla danego terminu.

Wybierz Datę:    

        

Kielce-Suków (12570)

Dane terminowe dla wybranej stacji. Kliknij datę, aby otrzymać dane z tego terminu dla wszystkich stacji.

TemperaturaZachmurzenieWiatrCiśnienieOpadyPogoda
 Data t td wb tx tn tg rh  Nt Nl Cl Cm Ch ws wd g1 g2 wx mslp ppp ch 24h 12h t ww ww w1 w2  
2019-06-22 23:00:00 17.7 11.5 13.8--- 6750.0wx-wx3wx--31020.4 989.6 0.6---------
2019-06-22 22:00:00 18.0 11.8 14.1--- 6750.0wx-3wx--31020.3 989.5 0.2---------
2019-06-22 21:00:00 18.8 12.3 14.7--- 6645.0wx-wx3wx--31019.9 989.2 0.2---------
2019-06-22 20:00:00 19.8 13.0 15.5--- 6550.0wx-wx3wx--31019.6 989.0 -0.1---------
2019-06-22 19:00:00 20.2 13.2 15.7--- 6450.0wxwxwxwx2wx--21019.8 989.3 0.1---------
2019-06-22 18:00:00 22.3 13.4 16.7 24.8 17.9- 5750.0wxwxwxwx3wx--31019.3 989.0 -0.2- 0.012------
2019-06-22 17:00:00 23.4 13.3 17.1--- 5340.0wxwxwxwxwx2wx--21019.3 989.1 -0.5---------
2019-06-22 16:00:00 23.7 13.0 17.1--- 5145.0wxwxwxwxwx4wx--41019.4 989.2 -0.7---------
2019-06-22 15:00:00 24.4 14.8 18.3--- 5545.0wxwxwxwxwx3wx--31019.3 989.2 -1.5---------
2019-06-22 14:00:00 24.0 14.1 17.7--- 5445.0wxwxwxwxwx4wx--41019.7 989.6 -1.4---------
2019-06-22 13:00:00 23.9 15.1 18.2--- 5840.0wxwxwxwxwx4wx--41020.1 989.9 -1.2---------
2019-06-22 12:00:00 22.5 14.6 17.4--- 6140.0wxwxwxwx4wx--41021.0 990.7 -0.2- 0.06------
2019-06-22 11:00:00 23.5 16.0 18.6--- 6340.0wxwxwxwx3wx---1021.2 991.0 0.1---------
2019-06-22 10:00:00 21.1 15.6 17.4--- 7135.0wxwxwxwx4wx--41021.6 991.1 0.6---------
2019-06-22 09:00:00 20.2 15.6 17.1--- 7540.0wxwxwxwx3wx--31021.5 990.9 0.6---------
2019-06-22 08:00:00 19.3 15.4 16.6--- 7835.0wxwxwx3wx--31021.6 990.9 1.1---------
2019-06-22 07:00:00 18.4 15.8 16.6--- 8530.0wxwxwx3wx--31021.3 990.5 1.3---------
2019-06-22 06:00:00 17.9 15.7 16.3 19.9 16.7 16 8725.0wxwxwx3wx---1021.1 990.3 1.6 1.9 1.924----- 6.4
2019-06-22 05:00:00 18.3 16.3 16.9--- 8817.0wxwxwx3wx--31020.5 989.8 1.6---------
2019-06-22 04:00:00 17.2 16.2 16.5--- 9418.0wxwxwxwx2wx--21020.0 989.2 1.3---------
2019-06-22 03:00:00 17.5 15.8 16.3--- 9030.0wxwxwxwxwx2wx--21019.5 988.7 1.2---------
2019-06-22 02:00:00 17.8 16.3 16.7--- 9127.0wxwxwxwx2wx--21018.9 988.2 1.2---------
2019-06-22 01:00:00 18.3 16.8 17.2--- 9122.0wxwxwxwx3wx--31018.6 987.9 0.9---------
2019-06-22 00:00:00 17.6 17.3 17.4--- 988.0wxwxwxwx1wx--11018.2 987.5 0.6- 0.06wx---
2019-06-21 23:00:00 17.1 16.8 16.9--- 986.0wx-wx1wx--11017.8 987.0 0.2---wx---
2019-06-21 22:00:00 17.6 16.8 17.0--- 9510.0wx-wx1wx--11017.7 987.0 0.9---------
2019-06-21 21:00:00 18.3 17.3 17.6--- 9416.0wxwxwxwx1wx--11017.6 986.9 1.3---------
2019-06-21 20:00:00 17.9 16.9 17.2--- 9420.0wxwxwxwxwx1wx--11017.5 986.8 1.0---------
2019-06-21 19:00:00 18.7 17.0 17.5--- 9018.0wxwxwxwxwx1wx--11016.7 986.1 0.7---------
2019-06-21 18:00:00 19.9 17.5 18.2 28.6 19.7- 8630.0wxwxwxwxwx1wx-1311016.0 985.6 1.1- 2.012wx-w1w2--
2019-06-21 17:00:00 19.8 17.4 18.1--- 8628.0wxwxwxwx2wx---1016.3 985.8 2.5---------
2019-06-21 16:00:00 21.0 18.2 19.0--- 8426.0wxwxwxwx2wx--21015.7 985.4 2.1---wx---
2019-06-21 15:00:00 19.8 17.2 18.0--- 8530.0wxwxwxwx5wx---1014.9 984.5 1.1---wx-w1--
2019-06-21 14:00:00 26.5 17.8 20.7--- 5935.0wxwxwxwx2wx--21013.0 983.3 -0.7---wx---
2019-06-21 13:00:00 27.6 15.6 19.9--- 4825.0wxwxwxwxwx3wx--31012.9 983.3 -1.2---------
2019-06-21 12:00:00 26.6 16.5 20.0--- 5428.0wxwxwxwxwx2wx--21013.1 983.4 -1.0- 0.06------
2019-06-21 11:00:00 27.1 17.0 20.5--- 5435.0wxwxwxwxwx2wx---1013.7 984.0 -0.3---------
2019-06-21 10:00:00 26.4 16.9 20.1--- 5626.0wxwxwxwxwx2wx---1014.2 984.5 0.5---------
2019-06-21 09:00:00 25.1 18.5 20.6--- 6722.0wxwxwxwxwx2wx--21014.3 984.4 0.6---------
2019-06-21 08:00:00 23.3 18.6 20.0--- 7521.0wxwxwxwxwx2wx--21014.4 984.3 0.9---------
2019-06-21 07:00:00 20.9 18.5 19.2--- 8615.0wxwxwxwxwx1wx--11014.3 984.0 0.7---------
2019-06-21 06:00:00 19.9 17.5 18.2 23.7 17.6 17 8612.0wxwxwxwxwx1wx--11014.2 983.8 0.9 0.2 0.212----- 5.4
2019-06-21 05:00:00 19.3 18.0 18.3--- 929.0wx-wxwx1wx--11013.8 983.4 0.9---wx---
2019-06-21 04:00:00 18.7 18.2 18.3--- 975.0wx-wx1wx--11013.8 983.3 0.9---wx---
2019-06-21 03:00:00 17.8 17.5 17.6--- 983.5wx-wx1wx--11013.5 982.9 0.9---wx---
2019-06-21 02:00:00 17.7 17.4 17.5--- 984.0wx-wxwx2wx--21013.1 982.5 0.4---wx---
2019-06-21 01:00:00 18.5 17.8 18.0--- 969.0wxwxwxwxwx1wx--11012.9 982.4 0.4---wx---
2019-06-21 00:00:00 18.7 18.4 18.5--- 983.0wxwxwxwxwx1wx--11012.5 982.0 0.3- 0.26wx---
1.5 ms

 

Print Friendly, PDF & Email